Billington, United Kingdom
Current Conditions -  °F | °C
As of 2:50 PM on Saturday 25 Oct 2014 (Local Time) from EGOW Reporting Station
Scattered Clouds Scattered Clouds  
Wind Chill: 59°   Ceiling: Unl
Heat Index: 59°   Visibility: 6mi
Dew Point: 46°   Wind: 17mph
Humidity: 63%   Direction: 240°WSW
Pressure: 29.91"   Gusts: NA
Location:  53.82°N, 2.42°W
Report Text: EGOW 251350Z 24015KT 9999 SCT025 15/08 Q1013 BLU
Loading
Personal Weather Stations






























Interactive Weather Map New forecast layout! Learn more

10-Day Weather Forecast

Advertisements
Track Severe Weather on mobile